sensor_id;sensor_type;location;lat;lon;timestamp;P1;durP1;ratioP1;P2;durP2;ratioP2
26656;SDS011;14279;50.010;8.260;2023-10-09T00:01:02;13.67;;;7.50;;
26656;SDS011;14279;50.010;8.260;2023-10-09T00:03:43;13.83;;;6.20;;
26656;SDS011;14279;50.010;8.260;2023-10-09T00:06:09;20.30;;;7.00;;
26656;SDS011;14279;50.010;8.260;2023-10-09T00:08:38;18.60;;;7.30;;
26656;SDS011;14279;50.010;8.260;2023-10-09T00:11:04;13.27;;;6.67;;
26656;SDS011;14279;50.010;8.260;2023-10-09T00:13:41;20.30;;;6.17;;
26656;SDS011;14279;50.010;8.260;2023-10-09T00:16:23;12.67;;;6.10;;
26656;SDS011;14279;50.010;8.260;2023-10-09T00:19:08;15.00;;;6.07;;
26656;SDS011;14279;50.010;8.260;2023-10-09T00:21:41;14.30;;;6.43;;
26656;SDS011;14279;50.010;8.260;2023-10-09T00:24:07;16.83;;;5.97;;
26656;SDS011;14279;50.010;8.260;2023-10-09T00:26:39;11.40;;;5.60;;
26656;SDS011;14279;50.010;8.260;2023-10-09T00:29:10;10.03;;;5.67;;
26656;SDS011;14279;50.010;8.260;2023-10-09T00:31:47;11.67;;;6.30;;
26656;SDS011;14279;50.010;8.260;2023-10-09T00:34:38;18.23;;;6.77;;
26656;SDS011;14279;50.010;8.260;2023-10-09T00:37:09;20.87;;;6.37;;
26656;SDS011;14279;50.010;8.260;2023-10-09T00:39:41;18.07;;;6.23;;
26656;SDS011;14279;50.010;8.260;2023-10-09T00:42:09;15.77;;;7.10;;
26656;SDS011;14279;50.010;8.260;2023-10-09T00:44:38;14.30;;;6.00;;
26656;SDS011;14279;50.010;8.260;2023-10-09T00:47:13;16.33;;;6.67;;
26656;SDS011;14279;50.010;8.260;2023-10-09T00:50:00;20.33;;;6.40;;
26656;SDS011;14279;50.010;8.260;2023-10-09T00:52:36;13.90;;;6.77;;
26656;SDS011;14279;50.010;8.260;2023-10-09T00:55:23;12.43;;;6.27;;
26656;SDS011;14279;50.010;8.260;2023-10-09T00:58:07;14.70;;;6.30;;
26656;SDS011;14279;50.010;8.260;2023-10-09T01:00:40;19.33;;;6.50;;
26656;SDS011;14279;50.010;8.260;2023-10-09T01:03:09;16.77;;;6.67;;
26656;SDS011;14279;50.010;8.260;2023-10-09T01:08:28;18.83;;;7.30;;
26656;SDS011;14279;50.010;8.260;2023-10-09T01:11:12;14.20;;;6.50;;
26656;SDS011;14279;50.010;8.260;2023-10-09T01:13:43;17.10;;;6.60;;
26656;SDS011;14279;50.010;8.260;2023-10-09T01:16:15;14.53;;;6.37;;
26656;SDS011;14279;50.010;8.260;2023-10-09T01:21:11;10.63;;;5.93;;
26656;SDS011;14279;50.010;8.260;2023-10-09T01:23:43;15.50;;;5.73;;
26656;SDS011;14279;50.010;8.260;2023-10-09T01:26:29;15.00;;;6.57;;
26656;SDS011;14279;50.010;8.260;2023-10-09T01:28:59;14.67;;;6.70;;
26656;SDS011;14279;50.010;8.260;2023-10-09T01:31:25;14.53;;;6.10;;
26656;SDS011;14279;50.010;8.260;2023-10-09T01:33:52;16.03;;;6.97;;
26656;SDS011;14279;50.010;8.260;2023-10-09T01:36:18;17.23;;;6.97;;
26656;SDS011;14279;50.010;8.260;2023-10-09T01:38:56;14.97;;;6.30;;
26656;SDS011;14279;50.010;8.260;2023-10-09T01:41:23;16.30;;;6.53;;
26656;SDS011;14279;50.010;8.260;2023-10-09T01:43:48;12.80;;;6.67;;
26656;SDS011;14279;50.010;8.260;2023-10-09T01:46:16;16.30;;;6.70;;
26656;SDS011;14279;50.010;8.260;2023-10-09T01:48:44;14.67;;;6.73;;
26656;SDS011;14279;50.010;8.260;2023-10-09T01:51:14;9.83;;;5.77;;
26656;SDS011;14279;50.010;8.260;2023-10-09T01:53:46;7.53;;;5.47;;
26656;SDS011;14279;50.010;8.260;2023-10-09T01:56:21;16.23;;;5.90;;
26656;SDS011;14279;50.010;8.260;2023-10-09T01:58:47;12.20;;;5.93;;
26656;SDS011;14279;50.010;8.260;2023-10-09T02:01:13;8.90;;;6.07;;
26656;SDS011;14279;50.010;8.260;2023-10-09T02:03:39;19.43;;;6.47;;
26656;SDS011;14279;50.010;8.260;2023-10-09T02:06:07;20.97;;;5.80;;
26656;SDS011;14279;50.010;8.260;2023-10-09T02:08:52;20.07;;;6.23;;
26656;SDS011;14279;50.010;8.260;2023-10-09T02:11:18;13.53;;;7.27;;
26656;SDS011;14279;50.010;8.260;2023-10-09T02:13:50;15.10;;;6.53;;
26656;SDS011;14279;50.010;8.260;2023-10-09T02:16:20;21.07;;;6.70;;
26656;SDS011;14279;50.010;8.260;2023-10-09T02:18:53;18.70;;;7.47;;
26656;SDS011;14279;50.010;8.260;2023-10-09T02:21:21;18.60;;;7.30;;
26656;SDS011;14279;50.010;8.260;2023-10-09T02:24:02;15.70;;;7.27;;
26656;SDS011;14279;50.010;8.260;2023-10-09T02:26:34;19.63;;;7.40;;
26656;SDS011;14279;50.010;8.260;2023-10-09T02:29:31;11.50;;;6.80;;
26656;SDS011;14279;50.010;8.260;2023-10-09T02:32:00;13.33;;;6.90;;
26656;SDS011;14279;50.010;8.260;2023-10-09T02:34:26;16.40;;;7.17;;
26656;SDS011;14279;50.010;8.260;2023-10-09T02:36:53;11.40;;;6.70;;
26656;SDS011;14279;50.010;8.260;2023-10-09T02:39:30;17.67;;;6.77;;
26656;SDS011;14279;50.010;8.260;2023-10-09T02:42:01;12.80;;;6.80;;
26656;SDS011;14279;50.010;8.260;2023-10-09T02:44:44;20.23;;;7.20;;
26656;SDS011;14279;50.010;8.260;2023-10-09T02:47:14;11.30;;;6.47;;
26656;SDS011;14279;50.010;8.260;2023-10-09T02:49:45;20.53;;;7.23;;
26656;SDS011;14279;50.010;8.260;2023-10-09T02:52:13;15.60;;;7.63;;
26656;SDS011;14279;50.010;8.260;2023-10-09T02:54:43;20.47;;;6.97;;
26656;SDS011;14279;50.010;8.260;2023-10-09T02:57:11;12.80;;;5.90;;
26656;SDS011;14279;50.010;8.260;2023-10-09T02:59:46;15.33;;;7.07;;
26656;SDS011;14279;50.010;8.260;2023-10-09T03:02:12;18.60;;;7.17;;
26656;SDS011;14279;50.010;8.260;2023-10-09T03:04:38;12.53;;;6.27;;
26656;SDS011;14279;50.010;8.260;2023-10-09T03:07:04;12.63;;;6.93;;
26656;SDS011;14279;50.010;8.260;2023-10-09T03:09:29;18.03;;;7.00;;
26656;SDS011;14279;50.010;8.260;2023-10-09T03:11:59;15.30;;;6.00;;
26656;SDS011;14279;50.010;8.260;2023-10-09T03:14:31;17.63;;;6.10;;
26656;SDS011;14279;50.010;8.260;2023-10-09T03:17:00;14.60;;;6.40;;
26656;SDS011;14279;50.010;8.260;2023-10-09T03:19:26;12.50;;;6.10;;
26656;SDS011;14279;50.010;8.260;2023-10-09T03:21:53;11.33;;;5.53;;
26656;SDS011;14279;50.010;8.260;2023-10-09T03:24:19;12.90;;;6.03;;
26656;SDS011;14279;50.010;8.260;2023-10-09T03:26:47;14.17;;;6.30;;
26656;SDS011;14279;50.010;8.260;2023-10-09T03:29:13;15.47;;;6.57;;
26656;SDS011;14279;50.010;8.260;2023-10-09T03:31:39;14.90;;;6.27;;
26656;SDS011;14279;50.010;8.260;2023-10-09T03:34:04;13.03;;;5.90;;
26656;SDS011;14279;50.010;8.260;2023-10-09T03:36:30;11.00;;;6.90;;
26656;SDS011;14279;50.010;8.260;2023-10-09T03:38:56;15.00;;;6.77;;
26656;SDS011;14279;50.010;8.260;2023-10-09T03:41:23;14.23;;;6.73;;
26656;SDS011;14279;50.010;8.260;2023-10-09T03:43:51;11.93;;;6.53;;
26656;SDS011;14279;50.010;8.260;2023-10-09T03:46:16;12.87;;;6.70;;
26656;SDS011;14279;50.010;8.260;2023-10-09T03:48:57;16.57;;;7.60;;
26656;SDS011;14279;50.010;8.260;2023-10-09T03:51:25;12.47;;;7.23;;
26656;SDS011;14279;50.010;8.260;2023-10-09T03:53:51;13.07;;;7.50;;
26656;SDS011;14279;50.010;8.260;2023-10-09T03:56:19;11.50;;;6.23;;
26656;SDS011;14279;50.010;8.260;2023-10-09T03:58:46;14.73;;;7.60;;
26656;SDS011;14279;50.010;8.260;2023-10-09T04:01:15;24.63;;;7.70;;
26656;SDS011;14279;50.010;8.260;2023-10-09T04:03:48;19.30;;;7.10;;
26656;SDS011;14279;50.010;8.260;2023-10-09T04:06:19;16.07;;;6.83;;
26656;SDS011;14279;50.010;8.260;2023-10-09T04:08:46;14.93;;;7.03;;
26656;SDS011;14279;50.010;8.260;2023-10-09T04:11:16;11.83;;;7.10;;
26656;SDS011;14279;50.010;8.260;2023-10-09T04:13:44;14.27;;;6.40;;
26656;SDS011;14279;50.010;8.260;2023-10-09T04:16:14;12.07;;;6.97;;
26656;SDS011;14279;50.010;8.260;2023-10-09T04:18:58;12.77;;;6.67;;
26656;SDS011;14279;50.010;8.260;2023-10-09T04:21:24;15.30;;;7.70;;
26656;SDS011;14279;50.010;8.260;2023-10-09T04:24:02;18.20;;;8.07;;
26656;SDS011;14279;50.010;8.260;2023-10-09T04:26:50;17.07;;;7.40;;
26656;SDS011;14279;50.010;8.260;2023-10-09T04:29:22;20.80;;;7.77;;
26656;SDS011;14279;50.010;8.260;2023-10-09T04:31:54;17.10;;;7.63;;
26656;SDS011;14279;50.010;8.260;2023-10-09T04:34:24;10.50;;;7.33;;
26656;SDS011;14279;50.010;8.260;2023-10-09T04:36:53;15.57;;;7.80;;
26656;SDS011;14279;50.010;8.260;2023-10-09T04:39:42;16.20;;;6.90;;
26656;SDS011;14279;50.010;8.260;2023-10-09T04:42:14;15.87;;;7.37;;
26656;SDS011;14279;50.010;8.260;2023-10-09T04:44:49;14.17;;;8.07;;
26656;SDS011;14279;50.010;8.260;2023-10-09T04:47:29;13.60;;;7.50;;
26656;SDS011;14279;50.010;8.260;2023-10-09T04:50:10;20.23;;;7.10;;
26656;SDS011;14279;50.010;8.260;2023-10-09T04:52:58;26.77;;;8.40;;
26656;SDS011;14279;50.010;8.260;2023-10-09T04:55:43;18.03;;;8.40;;
26656;SDS011;14279;50.010;8.260;2023-10-09T04:58:19;15.60;;;7.30;;
26656;SDS011;14279;50.010;8.260;2023-10-09T05:00:54;12.17;;;8.33;;
26656;SDS011;14279;50.010;8.260;2023-10-09T05:03:22;16.57;;;8.20;;
26656;SDS011;14279;50.010;8.260;2023-10-09T05:05:53;19.00;;;7.70;;
26656;SDS011;14279;50.010;8.260;2023-10-09T05:08:38;18.20;;;8.50;;
26656;SDS011;14279;50.010;8.260;2023-10-09T05:11:10;24.50;;;7.77;;
26656;SDS011;14279;50.010;8.260;2023-10-09T05:13:54;18.17;;;8.50;;
26656;SDS011;14279;50.010;8.260;2023-10-09T05:16:36;14.07;;;8.33;;
26656;SDS011;14279;50.010;8.260;2023-10-09T05:19:02;21.53;;;8.20;;
26656;SDS011;14279;50.010;8.260;2023-10-09T05:21:32;30.73;;;7.40;;
26656;SDS011;14279;50.010;8.260;2023-10-09T05:24:10;13.40;;;7.93;;
26656;SDS011;14279;50.010;8.260;2023-10-09T05:26:39;24.27;;;9.23;;
26656;SDS011;14279;50.010;8.260;2023-10-09T05:31:49;16.10;;;8.77;;
26656;SDS011;14279;50.010;8.260;2023-10-09T05:34:21;22.93;;;7.73;;
26656;SDS011;14279;50.010;8.260;2023-10-09T05:36:47;19.13;;;9.00;;
26656;SDS011;14279;50.010;8.260;2023-10-09T05:39:13;22.37;;;7.73;;
26656;SDS011;14279;50.010;8.260;2023-10-09T05:41:44;14.63;;;8.73;;
26656;SDS011;14279;50.010;8.260;2023-10-09T05:44:24;23.20;;;8.70;;
26656;SDS011;14279;50.010;8.260;2023-10-09T05:47:08;17.90;;;8.00;;
26656;SDS011;14279;50.010;8.260;2023-10-09T05:49:52;17.73;;;8.23;;
26656;SDS011;14279;50.010;8.260;2023-10-09T05:52:20;16.20;;;7.90;;
26656;SDS011;14279;50.010;8.260;2023-10-09T05:55:05;17.47;;;7.90;;
26656;SDS011;14279;50.010;8.260;2023-10-09T05:57:46;26.23;;;9.40;;
26656;SDS011;14279;50.010;8.260;2023-10-09T06:00:30;19.20;;;8.57;;
26656;SDS011;14279;50.010;8.260;2023-10-09T06:03:14;15.13;;;8.03;;
26656;SDS011;14279;50.010;8.260;2023-10-09T06:05:54;20.07;;;9.13;;
26656;SDS011;14279;50.010;8.260;2023-10-09T06:08:26;23.17;;;9.93;;
26656;SDS011;14279;50.010;8.260;2023-10-09T06:11:13;16.30;;;8.20;;
26656;SDS011;14279;50.010;8.260;2023-10-09T06:14:06;15.57;;;8.47;;
26656;SDS011;14279;50.010;8.260;2023-10-09T06:17:05;24.37;;;8.17;;
26656;SDS011;14279;50.010;8.260;2023-10-09T06:20:08;17.30;;;8.10;;
26656;SDS011;14279;50.010;8.260;2023-10-09T06:22:54;18.13;;;8.37;;
26656;SDS011;14279;50.010;8.260;2023-10-09T06:25:31;14.37;;;8.10;;
26656;SDS011;14279;50.010;8.260;2023-10-09T06:34:58;14.90;;;8.40;;
26656;SDS011;14279;50.010;8.260;2023-10-09T06:37:43;23.20;;;8.13;;
26656;SDS011;14279;50.010;8.260;2023-10-09T06:40:32;23.47;;;8.73;;
26656;SDS011;14279;50.010;8.260;2023-10-09T06:43:05;12.47;;;7.90;;
26656;SDS011;14279;50.010;8.260;2023-10-09T06:45:41;19.27;;;7.73;;
26656;SDS011;14279;50.010;8.260;2023-10-09T06:48:15;16.53;;;7.70;;
26656;SDS011;14279;50.010;8.260;2023-10-09T06:51:08;11.27;;;7.90;;
26656;SDS011;14279;50.010;8.260;2023-10-09T06:54:00;16.53;;;9.37;;
26656;SDS011;14279;50.010;8.260;2023-10-09T06:56:31;24.70;;;8.80;;
26656;SDS011;14279;50.010;8.260;2023-10-09T06:59:09;14.27;;;8.67;;
26656;SDS011;14279;50.010;8.260;2023-10-09T07:02:09;19.33;;;8.93;;
26656;SDS011;14279;50.010;8.260;2023-10-09T07:04:53;14.47;;;8.40;;
26656;SDS011;14279;50.010;8.260;2023-10-09T07:07:35;15.17;;;7.97;;
26656;SDS011;14279;50.010;8.260;2023-10-09T07:10:00;19.57;;;7.93;;
26656;SDS011;14279;50.010;8.260;2023-10-09T07:12:44;14.67;;;7.53;;
26656;SDS011;14279;50.010;8.260;2023-10-09T07:15:18;13.30;;;7.93;;
26656;SDS011;14279;50.010;8.260;2023-10-09T07:18:02;27.13;;;7.70;;
26656;SDS011;14279;50.010;8.260;2023-10-09T07:20:43;15.60;;;7.80;;
26656;SDS011;14279;50.010;8.260;2023-10-09T07:23:23;14.00;;;7.63;;
26656;SDS011;14279;50.010;8.260;2023-10-09T07:26:00;19.20;;;7.73;;
26656;SDS011;14279;50.010;8.260;2023-10-09T07:28:42;19.17;;;8.23;;
26656;SDS011;14279;50.010;8.260;2023-10-09T07:31:08;13.70;;;7.33;;
26656;SDS011;14279;50.010;8.260;2023-10-09T07:33:49;30.70;;;7.50;;
26656;SDS011;14279;50.010;8.260;2023-10-09T07:36:21;26.50;;;7.87;;
26656;SDS011;14279;50.010;8.260;2023-10-09T07:39:00;18.10;;;7.40;;
26656;SDS011;14279;50.010;8.260;2023-10-09T07:41:29;22.30;;;7.90;;
26656;SDS011;14279;50.010;8.260;2023-10-09T07:43:58;16.37;;;7.40;;
26656;SDS011;14279;50.010;8.260;2023-10-09T07:46:43;13.63;;;7.40;;
26656;SDS011;14279;50.010;8.260;2023-10-09T07:49:35;16.20;;;6.43;;
26656;SDS011;14279;50.010;8.260;2023-10-09T07:52:02;15.33;;;7.60;;
26656;SDS011;14279;50.010;8.260;2023-10-09T07:54:27;15.43;;;7.73;;
26656;SDS011;14279;50.010;8.260;2023-10-09T07:57:02;18.67;;;7.53;;
26656;SDS011;14279;50.010;8.260;2023-10-09T07:59:34;19.90;;;7.30;;
26656;SDS011;14279;50.010;8.260;2023-10-09T08:02:06;30.27;;;6.90;;
26656;SDS011;14279;50.010;8.260;2023-10-09T08:04:38;28.03;;;7.50;;
26656;SDS011;14279;50.010;8.260;2023-10-09T08:07:14;12.43;;;7.03;;
26656;SDS011;14279;50.010;8.260;2023-10-09T08:09:59;28.10;;;7.77;;
26656;SDS011;14279;50.010;8.260;2023-10-09T08:12:42;21.80;;;7.50;;
26656;SDS011;14279;50.010;8.260;2023-10-09T08:15:14;22.97;;;7.47;;
26656;SDS011;14279;50.010;8.260;2023-10-09T08:17:50;17.50;;;7.33;;
26656;SDS011;14279;50.010;8.260;2023-10-09T08:20:25;26.20;;;7.30;;
26656;SDS011;14279;50.010;8.260;2023-10-09T08:22:55;18.40;;;7.53;;
26656;SDS011;14279;50.010;8.260;2023-10-09T08:25:24;22.27;;;7.63;;
26656;SDS011;14279;50.010;8.260;2023-10-09T08:28:00;14.40;;;8.00;;
26656;SDS011;14279;50.010;8.260;2023-10-09T08:30:39;24.80;;;7.77;;
26656;SDS011;14279;50.010;8.260;2023-10-09T08:33:19;19.30;;;7.23;;
26656;SDS011;14279;50.010;8.260;2023-10-09T08:35:52;20.43;;;7.33;;
26656;SDS011;14279;50.010;8.260;2023-10-09T08:38:20;24.90;;;7.33;;
26656;SDS011;14279;50.010;8.260;2023-10-09T08:40:49;22.53;;;8.07;;
26656;SDS011;14279;50.010;8.260;2023-10-09T08:43:16;20.17;;;8.40;;
26656;SDS011;14279;50.010;8.260;2023-10-09T08:48:12;25.13;;;8.03;;
26656;SDS011;14279;50.010;8.260;2023-10-09T08:50:43;17.50;;;7.70;;
26656;SDS011;14279;50.010;8.260;2023-10-09T08:53:11;17.87;;;8.27;;
26656;SDS011;14279;50.010;8.260;2023-10-09T08:55:37;24.00;;;7.97;;
26656;SDS011;14279;50.010;8.260;2023-10-09T08:58:06;17.03;;;8.07;;
26656;SDS011;14279;50.010;8.260;2023-10-09T09:00:38;18.77;;;8.00;;
26656;SDS011;14279;50.010;8.260;2023-10-09T09:03:08;24.83;;;8.93;;
26656;SDS011;14279;50.010;8.260;2023-10-09T09:05:33;14.73;;;8.57;;
26656;SDS011;14279;50.010;8.260;2023-10-09T09:08:00;29.70;;;9.20;;
26656;SDS011;14279;50.010;8.260;2023-10-09T09:10:31;21.33;;;9.43;;
26656;SDS011;14279;50.010;8.260;2023-10-09T09:13:04;16.80;;;8.27;;
26656;SDS011;14279;50.010;8.260;2023-10-09T09:15:30;19.23;;;9.20;;
26656;SDS011;14279;50.010;8.260;2023-10-09T09:18:06;24.80;;;9.80;;
26656;SDS011;14279;50.010;8.260;2023-10-09T09:20:35;14.50;;;8.60;;
26656;SDS011;14279;50.010;8.260;2023-10-09T09:23:05;16.93;;;7.93;;
26656;SDS011;14279;50.010;8.260;2023-10-09T09:25:46;18.87;;;8.87;;
26656;SDS011;14279;50.010;8.260;2023-10-09T09:28:32;21.03;;;9.97;;
26656;SDS011;14279;50.010;8.260;2023-10-09T09:31:07;25.00;;;9.13;;
26656;SDS011;14279;50.010;8.260;2023-10-09T09:33:39;16.80;;;8.67;;
26656;SDS011;14279;50.010;8.260;2023-10-09T09:36:08;21.23;;;8.93;;
26656;SDS011;14279;50.010;8.260;2023-10-09T09:38:36;23.63;;;9.40;;
26656;SDS011;14279;50.010;8.260;2023-10-09T09:41:15;27.80;;;8.60;;
26656;SDS011;14279;50.010;8.260;2023-10-09T09:43:54;38.00;;;9.60;;
26656;SDS011;14279;50.010;8.260;2023-10-09T09:46:31;35.90;;;8.83;;
26656;SDS011;14279;50.010;8.260;2023-10-09T09:49:04;28.73;;;8.30;;
26656;SDS011;14279;50.010;8.260;2023-10-09T09:51:32;18.43;;;8.80;;
26656;SDS011;14279;50.010;8.260;2023-10-09T09:53:58;19.17;;;8.97;;
26656;SDS011;14279;50.010;8.260;2023-10-09T09:56:24;35.10;;;9.40;;
26656;SDS011;14279;50.010;8.260;2023-10-09T09:58:50;26.30;;;8.37;;
26656;SDS011;14279;50.010;8.260;2023-10-09T10:01:23;34.87;;;9.30;;
26656;SDS011;14279;50.010;8.260;2023-10-09T10:06:45;17.23;;;8.70;;
26656;SDS011;14279;50.010;8.260;2023-10-09T10:12:07;20.60;;;9.10;;
26656;SDS011;14279;50.010;8.260;2023-10-09T10:18:06;22.83;;;8.57;;
26656;SDS011;14279;50.010;8.260;2023-10-09T10:20:28;17.70;;;9.27;;
26656;SDS011;14279;50.010;8.260;2023-10-09T10:25:46;22.97;;;8.03;;
26656;SDS011;14279;50.010;8.260;2023-10-09T10:28:23;37.87;;;7.97;;
26656;SDS011;14279;50.010;8.260;2023-10-09T10:31:12;44.60;;;9.40;;
26656;SDS011;14279;50.010;8.260;2023-10-09T10:36:21;34.47;;;9.50;;
26656;SDS011;14279;50.010;8.260;2023-10-09T10:39:06;26.67;;;9.00;;
26656;SDS011;14279;50.010;8.260;2023-10-09T10:41:56;18.67;;;8.43;;
26656;SDS011;14279;50.010;8.260;2023-10-09T10:44:27;27.60;;;9.23;;
26656;SDS011;14279;50.010;8.260;2023-10-09T10:47:06;33.17;;;8.50;;
26656;SDS011;14279;50.010;8.260;2023-10-09T10:49:47;23.10;;;8.50;;
26656;SDS011;14279;50.010;8.260;2023-10-09T10:52:23;22.20;;;8.53;;
26656;SDS011;14279;50.010;8.260;2023-10-09T10:55:12;24.90;;;8.20;;
26656;SDS011;14279;50.010;8.260;2023-10-09T10:58:15;28.17;;;8.50;;
26656;SDS011;14279;50.010;8.260;2023-10-09T11:01:00;19.73;;;7.80;;
26656;SDS011;14279;50.010;8.260;2023-10-09T11:03:37;28.17;;;7.00;;
26656;SDS011;14279;50.010;8.260;2023-10-09T11:06:24;24.33;;;7.77;;
26656;SDS011;14279;50.010;8.260;2023-10-09T11:09:09;32.03;;;7.07;;
26656;SDS011;14279;50.010;8.260;2023-10-09T11:11:50;15.73;;;7.47;;
26656;SDS011;14279;50.010;8.260;2023-10-09T11:14:44;23.70;;;6.60;;
26656;SDS011;14279;50.010;8.260;2023-10-09T11:17:15;21.10;;;7.23;;
26656;SDS011;14279;50.010;8.260;2023-10-09T11:19:50;17.73;;;7.90;;
26656;SDS011;14279;50.010;8.260;2023-10-09T11:22:18;23.40;;;7.77;;
26656;SDS011;14279;50.010;8.260;2023-10-09T11:24:53;19.77;;;7.47;;
26656;SDS011;14279;50.010;8.260;2023-10-09T11:27:52;18.40;;;7.40;;
26656;SDS011;14279;50.010;8.260;2023-10-09T11:30:20;20.07;;;8.17;;
26656;SDS011;14279;50.010;8.260;2023-10-09T11:33:04;17.63;;;7.20;;
26656;SDS011;14279;50.010;8.260;2023-10-09T11:35:39;20.40;;;6.97;;
26656;SDS011;14279;50.010;8.260;2023-10-09T11:38:08;19.83;;;6.17;;
26656;SDS011;14279;50.010;8.260;2023-10-09T11:40:46;14.83;;;6.20;;
26656;SDS011;14279;50.010;8.260;2023-10-09T11:43:18;20.30;;;7.27;;
26656;SDS011;14279;50.010;8.260;2023-10-09T11:45:48;20.33;;;7.00;;
26656;SDS011;14279;50.010;8.260;2023-10-09T11:48:20;21.00;;;6.87;;
26656;SDS011;14279;50.010;8.260;2023-10-09T11:50:56;17.73;;;6.10;;
26656;SDS011;14279;50.010;8.260;2023-10-09T11:53:42;14.23;;;6.33;;
26656;SDS011;14279;50.010;8.260;2023-10-09T11:56:10;13.93;;;5.07;;
26656;SDS011;14279;50.010;8.260;2023-10-09T11:58:39;18.13;;;6.13;;
26656;SDS011;14279;50.010;8.260;2023-10-09T12:01:10;16.03;;;6.53;;
26656;SDS011;14279;50.010;8.260;2023-10-09T12:03:42;21.10;;;5.50;;
26656;SDS011;14279;50.010;8.260;2023-10-09T12:06:09;17.30;;;6.60;;
26656;SDS011;14279;50.010;8.260;2023-10-09T12:08:37;15.03;;;5.40;;
26656;SDS011;14279;50.010;8.260;2023-10-09T12:11:05;11.80;;;5.10;;
26656;SDS011;14279;50.010;8.260;2023-10-09T12:13:34;9.50;;;4.83;;
26656;SDS011;14279;50.010;8.260;2023-10-09T12:16:00;13.33;;;5.40;;
26656;SDS011;14279;50.010;8.260;2023-10-09T12:18:25;12.07;;;5.33;;
26656;SDS011;14279;50.010;8.260;2023-10-09T12:20:51;6.57;;;4.47;;
26656;SDS011;14279;50.010;8.260;2023-10-09T12:23:21;11.70;;;5.27;;
26656;SDS011;14279;50.010;8.260;2023-10-09T12:25:51;8.33;;;5.27;;
26656;SDS011;14279;50.010;8.260;2023-10-09T12:28:21;10.57;;;5.80;;
26656;SDS011;14279;50.010;8.260;2023-10-09T12:30:47;10.37;;;4.70;;
26656;SDS011;14279;50.010;8.260;2023-10-09T12:36:14;11.00;;;5.03;;
26656;SDS011;14279;50.010;8.260;2023-10-09T12:38:48;8.70;;;5.20;;
26656;SDS011;14279;50.010;8.260;2023-10-09T12:41:19;8.47;;;4.97;;
26656;SDS011;14279;50.010;8.260;2023-10-09T12:44:07;11.50;;;5.23;;
26656;SDS011;14279;50.010;8.260;2023-10-09T12:46:39;9.10;;;5.23;;
26656;SDS011;14279;50.010;8.260;2023-10-09T12:49:05;22.40;;;9.13;;
26656;SDS011;14279;50.010;8.260;2023-10-09T12:51:31;12.77;;;7.00;;
26656;SDS011;14279;50.010;8.260;2023-10-09T12:53:56;12.13;;;5.97;;
26656;SDS011;14279;50.010;8.260;2023-10-09T12:56:26;10.57;;;5.33;;
26656;SDS011;14279;50.010;8.260;2023-10-09T12:58:58;10.40;;;4.90;;
26656;SDS011;14279;50.010;8.260;2023-10-09T13:01:26;6.87;;;4.30;;
26656;SDS011;14279;50.010;8.260;2023-10-09T13:03:54;9.57;;;4.50;;
26656;SDS011;14279;50.010;8.260;2023-10-09T13:06:19;11.70;;;5.07;;
26656;SDS011;14279;50.010;8.260;2023-10-09T13:08:49;10.10;;;5.07;;
26656;SDS011;14279;50.010;8.260;2023-10-09T13:11:14;11.90;;;5.60;;
26656;SDS011;14279;50.010;8.260;2023-10-09T13:13:43;11.13;;;6.00;;
26656;SDS011;14279;50.010;8.260;2023-10-09T13:16:16;9.43;;;5.20;;
26656;SDS011;14279;50.010;8.260;2023-10-09T13:18:55;9.93;;;5.70;;
26656;SDS011;14279;50.010;8.260;2023-10-09T13:21:26;11.53;;;5.50;;
26656;SDS011;14279;50.010;8.260;2023-10-09T13:23:56;10.07;;;5.50;;
26656;SDS011;14279;50.010;8.260;2023-10-09T13:26:22;11.57;;;5.90;;
26656;SDS011;14279;50.010;8.260;2023-10-09T13:29:00;9.83;;;5.43;;
26656;SDS011;14279;50.010;8.260;2023-10-09T13:31:26;8.23;;;4.90;;
26656;SDS011;14279;50.010;8.260;2023-10-09T13:33:53;12.13;;;5.70;;
26656;SDS011;14279;50.010;8.260;2023-10-09T13:36:20;16.33;;;5.00;;
26656;SDS011;14279;50.010;8.260;2023-10-09T13:38:55;10.20;;;5.00;;
26656;SDS011;14279;50.010;8.260;2023-10-09T13:41:23;9.80;;;4.87;;
26656;SDS011;14279;50.010;8.260;2023-10-09T13:43:54;12.40;;;5.70;;
26656;SDS011;14279;50.010;8.260;2023-10-09T13:46:21;16.30;;;5.47;;
26656;SDS011;14279;50.010;8.260;2023-10-09T13:48:47;13.90;;;5.03;;
26656;SDS011;14279;50.010;8.260;2023-10-09T13:51:14;9.73;;;4.60;;
26656;SDS011;14279;50.010;8.260;2023-10-09T13:53:43;10.60;;;5.07;;
26656;SDS011;14279;50.010;8.260;2023-10-09T13:58:45;7.70;;;4.60;;
26656;SDS011;14279;50.010;8.260;2023-10-09T14:01:11;7.77;;;5.10;;
26656;SDS011;14279;50.010;8.260;2023-10-09T14:03:37;12.00;;;5.00;;
26656;SDS011;14279;50.010;8.260;2023-10-09T14:06:03;8.70;;;4.93;;
26656;SDS011;14279;50.010;8.260;2023-10-09T14:08:44;9.30;;;4.90;;
26656;SDS011;14279;50.010;8.260;2023-10-09T14:11:10;14.37;;;5.43;;
26656;SDS011;14279;50.010;8.260;2023-10-09T14:13:41;15.20;;;5.77;;
26656;SDS011;14279;50.010;8.260;2023-10-09T14:16:07;15.77;;;5.70;;
26656;SDS011;14279;50.010;8.260;2023-10-09T14:18:48;9.00;;;5.53;;
26656;SDS011;14279;50.010;8.260;2023-10-09T14:21:18;11.93;;;4.67;;
26656;SDS011;14279;50.010;8.260;2023-10-09T14:23:43;10.00;;;4.90;;
26656;SDS011;14279;50.010;8.260;2023-10-09T14:26:11;10.47;;;5.20;;
26656;SDS011;14279;50.010;8.260;2023-10-09T14:28:37;11.23;;;5.33;;
26656;SDS011;14279;50.010;8.260;2023-10-09T14:31:03;11.93;;;6.27;;
26656;SDS011;14279;50.010;8.260;2023-10-09T14:33:30;8.80;;;5.00;;
26656;SDS011;14279;50.010;8.260;2023-10-09T14:36:01;18.40;;;5.90;;
26656;SDS011;14279;50.010;8.260;2023-10-09T14:38:27;14.40;;;5.47;;
26656;SDS011;14279;50.010;8.260;2023-10-09T14:40:52;11.33;;;5.50;;
26656;SDS011;14279;50.010;8.260;2023-10-09T14:43:22;16.70;;;6.33;;
26656;SDS011;14279;50.010;8.260;2023-10-09T14:45:53;8.73;;;4.83;;
26656;SDS011;14279;50.010;8.260;2023-10-09T14:48:18;7.23;;;4.83;;
26656;SDS011;14279;50.010;8.260;2023-10-09T14:50:49;8.87;;;5.00;;
26656;SDS011;14279;50.010;8.260;2023-10-09T14:53:17;15.10;;;5.93;;
26656;SDS011;14279;50.010;8.260;2023-10-09T14:55:44;21.60;;;5.37;;
26656;SDS011;14279;50.010;8.260;2023-10-09T14:58:13;13.10;;;5.83;;
26656;SDS011;14279;50.010;8.260;2023-10-09T15:00:40;18.40;;;6.13;;
26656;SDS011;14279;50.010;8.260;2023-10-09T15:03:12;13.33;;;5.37;;
26656;SDS011;14279;50.010;8.260;2023-10-09T15:05:42;14.03;;;6.00;;
26656;SDS011;14279;50.010;8.260;2023-10-09T15:08:08;14.00;;;6.80;;
26656;SDS011;14279;50.010;8.260;2023-10-09T15:13:14;22.23;;;5.87;;
26656;SDS011;14279;50.010;8.260;2023-10-09T15:15:41;23.80;;;6.47;;
26656;SDS011;14279;50.010;8.260;2023-10-09T15:18:07;26.80;;;7.07;;
26656;SDS011;14279;50.010;8.260;2023-10-09T15:20:34;23.50;;;7.70;;
26656;SDS011;14279;50.010;8.260;2023-10-09T15:23:00;19.60;;;7.33;;
26656;SDS011;14279;50.010;8.260;2023-10-09T15:25:26;33.70;;;7.90;;
26656;SDS011;14279;50.010;8.260;2023-10-09T15:27:51;13.50;;;6.17;;
26656;SDS011;14279;50.010;8.260;2023-10-09T15:30:17;22.17;;;7.20;;
26656;SDS011;14279;50.010;8.260;2023-10-09T15:32:42;20.30;;;6.33;;
26656;SDS011;14279;50.010;8.260;2023-10-09T15:35:08;18.60;;;6.67;;
26656;SDS011;14279;50.010;8.260;2023-10-09T15:37:40;19.43;;;6.70;;
26656;SDS011;14279;50.010;8.260;2023-10-09T15:40:06;20.10;;;6.73;;
26656;SDS011;14279;50.010;8.260;2023-10-09T15:42:39;21.17;;;6.57;;
26656;SDS011;14279;50.010;8.260;2023-10-09T15:45:05;11.87;;;6.03;;
26656;SDS011;14279;50.010;8.260;2023-10-09T15:47:31;19.83;;;5.70;;
26656;SDS011;14279;50.010;8.260;2023-10-09T15:50:01;32.10;;;8.00;;